Orenge 7 — JL6148 — position and weather

sailwx.info

Track history (hours):
 
Tides and Currents Weather Stations Pressure Air Temp Water Temp Dewpoint Dewpoint Depression Visibility Wind Speed Wind Dir Waves Ship Positions

Orenge 7

Last reported at 2015-Aug-03 20:12 UTC. Time now 2015-Aug-03 23:25 UTC.
Position N 34°36' E 135°16'.

Length 163 m; draft 4.9 m.

Type: Passenger vessel. MMSI: 431500186.

Date/timePositionNaut miles runAvg speedWind from/ knotsBaromVisibWave heightAir tempDewpointWater temp
2015-Aug-03 20:12N 34°36' E 135°16'1 0.0
2015-Aug-01 20:18N 34°35' E 135°15'1 0.0
2015-Jul-30 20:25N 34°35' E 135°16'14 0.5
2015-Jul-29 14:33N 34°37' E 134°59'1818.3
2015-Jul-29 13:33N 34°37' E 135°21'4 3.8
2015-Jul-29 12:28N 34°37' E 135°26'0 0.0
2015-Jul-29 11:22N 34°37' E 135°26'0 0.0
2015-Jul-29 09:28N 34°37' E 135°26'0 0.0
2015-Jul-29 08:28N 34°37' E 135°26'0 0.0
2015-Jul-29 07:28N 34°37' E 135°26'0 0.0
2015-Jul-29 06:28N 34°37' E 135°26'0 0.0
2015-Jul-29 05:28N 34°37' E 135°26'0 0.0
2015-Jul-29 04:28N 34°37' E 135°26'0 0.0
2015-Jul-29 03:28N 34°37' E 135°26'0 0.0
2015-Jul-29 02:28N 34°37' E 135°26'0 0.0
2015-Jul-29 01:22N 34°37' E 135°26'0 0.0
2015-Jul-29 00:28N 34°37' E 135°26'0 0.0
2015-Jul-28 23:22N 34°37' E 135°26'0 0.0
2015-Jul-28 22:22N 34°37' E 135°26'0 0.0
2015-Jul-28 21:28N 34°37' E 135°26'6 6.7
2015-Jul-28 20:33N 34°36' E 135°19'1717.2
2015-Jul-28 19:33N 34°37' E 134°58'1 0.0
2015-Jul-27 14:32N 34°37' E 134°58'1717.3
2015-Jul-27 13:33N 34°37' E 135°19'6 5.3
2015-Jul-27 12:28N 34°37' E 135°26'0 0.0
2015-Jul-27 11:28N 34°37' E 135°26'0 0.0
2015-Jul-27 10:28N 34°37' E 135°26'0 0.0
2015-Jul-27 06:28N 34°37' E 135°26'0 0.0
2015-Jul-27 05:28N 34°37' E 135°26'0 0.0
2015-Jul-27 04:28N 34°37' E 135°26'0 0.0
2015-Jul-27 03:28N 34°37' E 135°26'0 0.0
2015-Jul-27 02:28N 34°37' E 135°26'0 0.0
2015-Jul-27 01:28N 34°37' E 135°26'0 0.0
2015-Jul-27 00:28N 34°37' E 135°26'0 0.0
2015-Jul-26 23:28N 34°37' E 135°26'0 0.0
2015-Jul-26 22:16N 34°37' E 135°26'0 0.0
2015-Jul-26 21:28N 34°37' E 135°26'4 4.9
2015-Jul-26 20:33N 34°36' E 135°21'1817.7
2015-Jul-26 19:33N 34°37' E 134°59'1 0.0
2015-Jul-25 14:33N 34°37' E 134°58'1717.4
2015-Jul-25 13:33N 34°37' E 135°19'6 5.4
2015-Jul-25 12:30N 34°37' E 135°26'0 0.0
2015-Jul-25 11:30N 34°37' E 135°26'0 0.0
2015-Jul-25 10:30N 34°37' E 135°26'0 0.0
2015-Jul-25 09:30N 34°37' E 135°26'0 0.0
2015-Jul-25 08:24N 34°37' E 135°26'0 0.0
2015-Jul-25 07:30N 34°37' E 135°26'0 0.0
2015-Jul-25 06:30N 34°37' E 135°26'0 0.0
2015-Jul-25 05:30N 34°37' E 135°26'0 0.0
2015-Jul-25 04:30N 34°37' E 135°26'0 0.0
2015-Jul-25 03:15N 34°37' E 135°26'0 0.0
2015-Jul-25 02:33N 34°37' E 135°26'0 0.0
2015-Jul-25 01:33N 34°37' E 135°26'0 0.0
2015-Jul-25 00:27N 34°37' E 135°26'0 0.0
2015-Jul-24 23:33N 34°37' E 135°26'0 0.0
2015-Jul-24 22:33N 34°37' E 135°26'0 0.0
2015-Jul-24 21:33N 34°37' E 135°26'5 5.2
2015-Jul-24 20:33N 34°36' E 135°20'  
Track history (hours):
 
Tides and Currents Weather Stations Pressure Air Temp Water Temp Dewpoint Dewpoint Depression Visibility Wind Speed Wind Dir Waves Ship Positions

Orenge 7

Last reported at 2015-Aug-03 20:12 UTC. Time now 2015-Aug-03 23:25 UTC.
Position N 34°36' E 135°16'.

Length 163 m; draft 4.9 m.

Type: Passenger vessel. MMSI: 431500186.

Date/timePositionNaut miles runAvg speedWind from/ knotsBaromVisibWave heightAir tempDewpointWater temp
2015-Aug-03 20:12N 34°36' E 135°16'1 0.0
2015-Aug-01 20:18N 34°35' E 135°15'1 0.0
2015-Jul-30 20:25N 34°35' E 135°16'14 0.5
2015-Jul-29 14:33N 34°37' E 134°59'1818.3
2015-Jul-29 13:33N 34°37' E 135°21'4 3.8
2015-Jul-29 12:28N 34°37' E 135°26'0 0.0
2015-Jul-29 11:22N 34°37' E 135°26'0 0.0
2015-Jul-29 09:28N 34°37' E 135°26'0 0.0
2015-Jul-29 08:28N 34°37' E 135°26'0 0.0
2015-Jul-29 07:28N 34°37' E 135°26'0 0.0
2015-Jul-29 06:28N 34°37' E 135°26'0 0.0
2015-Jul-29 05:28N 34°37' E 135°26'0 0.0
2015-Jul-29 04:28N 34°37' E 135°26'0 0.0
2015-Jul-29 03:28N 34°37' E 135°26'0 0.0
2015-Jul-29 02:28N 34°37' E 135°26'0 0.0
2015-Jul-29 01:22N 34°37' E 135°26'0 0.0
2015-Jul-29 00:28N 34°37' E 135°26'0 0.0
2015-Jul-28 23:22N 34°37' E 135°26'0 0.0
2015-Jul-28 22:22N 34°37' E 135°26'0 0.0
2015-Jul-28 21:28N 34°37' E 135°26'6 6.7
2015-Jul-28 20:33N 34°36' E 135°19'1717.2
2015-Jul-28 19:33N 34°37' E 134°58'1 0.0
2015-Jul-27 14:32N 34°37' E 134°58'1717.3
2015-Jul-27 13:33N 34°37' E 135°19'6 5.3
2015-Jul-27 12:28N 34°37' E 135°26'0 0.0
2015-Jul-27 11:28N 34°37' E 135°26'0 0.0
2015-Jul-27 10:28N 34°37' E 135°26'0 0.0
2015-Jul-27 06:28N 34°37' E 135°26'0 0.0
2015-Jul-27 05:28N 34°37' E 135°26'0 0.0
2015-Jul-27 04:28N 34°37' E 135°26'0 0.0
2015-Jul-27 03:28N 34°37' E 135°26'0 0.0
2015-Jul-27 02:28N 34°37' E 135°26'0 0.0
2015-Jul-27 01:28N 34°37' E 135°26'0 0.0
2015-Jul-27 00:28N 34°37' E 135°26'0 0.0
2015-Jul-26 23:28N 34°37' E 135°26'0 0.0
2015-Jul-26 22:16N 34°37' E 135°26'0 0.0
2015-Jul-26 21:28N 34°37' E 135°26'4 4.9
2015-Jul-26 20:33N 34°36' E 135°21'1817.7
2015-Jul-26 19:33N 34°37' E 134°59'1 0.0
2015-Jul-25 14:33N 34°37' E 134°58'1717.4
2015-Jul-25 13:33N 34°37' E 135°19'6 5.4
2015-Jul-25 12:30N 34°37' E 135°26'0 0.0
2015-Jul-25 11:30N 34°37' E 135°26'0 0.0
2015-Jul-25 10:30N 34°37' E 135°26'0 0.0
2015-Jul-25 09:30N 34°37' E 135°26'0 0.0
2015-Jul-25 08:24N 34°37' E 135°26'0 0.0
2015-Jul-25 07:30N 34°37' E 135°26'0 0.0
2015-Jul-25 06:30N 34°37' E 135°26'0 0.0
2015-Jul-25 05:30N 34°37' E 135°26'0 0.0
2015-Jul-25 04:30N 34°37' E 135°26'0 0.0
2015-Jul-25 03:15N 34°37' E 135°26'0 0.0
2015-Jul-25 02:33N 34°37' E 135°26'0 0.0
2015-Jul-25 01:33N 34°37' E 135°26'0 0.0
2015-Jul-25 00:27N 34°37' E 135°26'0 0.0
2015-Jul-24 23:33N 34°37' E 135°26'0 0.0
2015-Jul-24 22:33N 34°37' E 135°26'0 0.0
2015-Jul-24 21:33N 34°37' E 135°26'5 5.2
2015-Jul-24 20:33N 34°36' E 135°20'  

Dump ship's entire track history